.
WxDataArchive / Data Records for 2009-07-15
2009-07-14 July 2009 2009-07-16

Data Records for Wednesday, 15 July 2009

Time	Temp	Chill	HIndex	Humid	Dewpt	 Wind 	HiWind	WindDir	Rain 	Barom 
-----	----	-----	------	-----	-----	------	------	-------	-----	----- 
00:00	69.1	69.1	69.1	49	49.1	0	1	112	0.00	30.086 
00:05	68.8	68.8	68.8	49	48.8	0	1	112	0.00	30.086 
00:10	68.6	68.6	68.6	50	49.2	0	1	112	0.00	30.086 
00:15	68.4	68.4	68.4	51	49.6	0	1	112	0.00	30.080 
00:20	68.3	68.3	68.3	51	49.5	0	1	112	0.00	30.080 
00:25	68.1	68.1	68.1	51	49.3	0	2	112	0.00	30.080 
00:30	68.1	68.1	68.1	51	49.3	0	2	112	0.00	30.078 
00:35	67.9	67.9	67.9	52	49.6	0	2	112	0.00	30.078 
00:40	67.9	67.9	67.9	53	50.1	0	0	---	0.00	30.078 
00:45	67.8	67.8	67.8	54	50.5	0	1	112	0.00	30.074 
00:50	67.6	67.6	67.6	54	50.4	0	1	112	0.00	30.074 
00:55	67.6	67.6	67.6	54	50.4	0	1	112	0.00	30.074 
01:00	67.4	67.4	67.4	54	50.2	0	1	112	0.00	30.071 
01:05	67.3	67.3	67.3	55	50.6	0	1	112	0.00	30.071 
01:10	67.3	67.3	67.3	55	50.6	0	1	112	0.00	30.071 
01:15	67.1	67.1	67.1	55	50.4	0	0	---	0.00	30.078 
01:20	66.9	66.9	66.9	56	50.7	0	1	112	0.00	30.078 
01:25	66.8	66.8	66.8	57	51.1	0	1	112	0.00	30.078 
01:30	66.6	66.6	66.6	57	50.9	0	1	112	0.00	30.080 
01:35	66.3	66.3	66.3	58	51.1	0	1	112	0.00	30.080 
01:40	66.0	66.0	66.0	59	51.3	0	1	112	0.00	30.080 
01:45	65.8	65.8	65.8	59	51.1	0	1	112	0.00	30.075 
01:50	65.5	65.5	65.5	60	51.2	0	0	---	0.00	30.075 
01:55	65.3	65.3	65.3	61	51.5	0	0	---	0.00	30.075 
02:00	65.0	65.0	65.0	62	51.7	0	0	---	0.00	30.082 
02:05	64.7	64.7	64.7	62	51.4	0	0	---	0.00	30.082 
02:10	64.3	64.3	64.3	62	51.0	0	0	---	0.00	30.082 
02:15	64.0	64.0	64.0	63	51.1	0	0	---	0.00	30.082 
02:20	63.7	63.7	63.7	64	51.3	0	0	---	0.00	30.082 
02:25	63.4	63.4	63.4	65	51.4	0	0	---	0.00	30.082 
02:30	62.9	62.9	62.9	66	51.4	0	0	---	0.00	30.078 
02:35	62.4	62.4	62.4	67	51.3	0	0	---	0.00	30.078 
02:40	62.1	62.1	62.1	67	51.0	0	0	---	0.00	30.078 
02:45	61.8	61.8	61.8	68	51.1	0	0	---	0.00	30.077 
02:50	61.8	61.8	61.8	68	51.1	0	0	---	0.00	30.077 
02:55	61.6	61.6	61.6	68	50.9	0	0	---	0.00	30.077 
03:00	61.5	61.5	61.5	69	51.2	0	0	---	0.00	30.071 
03:05	61.2	61.2	61.2	69	50.9	0	0	---	0.00	30.071 
03:10	61.0	61.0	61.0	70	51.1	0	0	---	0.00	30.071 
03:15	60.7	60.7	60.7	71	51.2	0	0	---	0.00	30.068 
03:20	60.4	60.4	60.4	71	50.9	0	0	---	0.00	30.068 
03:25	60.2	60.2	60.2	72	51.1	0	0	---	0.00	30.068 
03:30	60.1	60.1	60.1	74	51.8	0	0	---	0.00	30.060 
03:35	59.8	59.8	59.8	75	51.9	0	0	---	0.00	30.060 
03:40	59.6	59.6	59.6	75	51.7	0	0	---	0.00	30.060 
03:45	59.5	59.5	59.5	76	51.9	0	0	---	0.00	30.055 
03:50	59.3	59.3	59.3	76	51.7	0	0	---	0.00	30.055 
03:55	59.0	59.0	59.0	76	51.4	0	0	---	0.00	30.055 
04:00	59.0	59.0	59.0	77	51.8	0	0	---	0.00	30.052 
04:05	58.9	58.9	58.9	77	51.7	0	0	---	0.00	30.052 
04:10	58.7	58.7	58.7	77	51.5	0	0	---	0.00	30.052 
04:15	58.6	58.6	58.6	78	51.8	0	0	---	0.00	30.043 
04:20	58.6	58.6	58.6	78	51.8	0	0	---	0.00	30.043 
04:25	58.4	58.4	58.4	78	51.6	0	0	---	0.00	30.043 
04:30	58.4	58.4	58.4	78	51.6	0	0	---	0.00	30.037 
04:35	58.3	58.3	58.3	78	51.5	0	0	---	0.00	30.037 
04:40	58.3	58.3	58.3	78	51.5	0	0	---	0.00	30.037 
04:45	58.3	58.3	58.3	78	51.5	0	0	---	0.00	30.036 
04:50	58.3	58.3	58.3	78	51.5	0	0	---	0.00	30.036 
04:55	58.3	58.3	58.3	78	51.5	0	0	---	0.00	30.036 
05:00	58.3	58.3	58.3	78	51.5	0	1	112	0.00	30.028 
05:05	58.3	58.3	58.3	78	51.5	0	0	---	0.00	30.028 
05:10	58.1	58.1	58.1	78	51.3	0	0	---	0.00	30.028 
05:15	58.0	58.0	58.0	78	51.2	0	0	---	0.00	30.030 
05:20	58.0	58.0	58.0	78	51.2	0	0	---	0.00	30.030 
05:25	57.8	57.8	57.8	78	51.0	0	0	---	0.00	30.030 
05:30	57.6	57.6	57.6	80	51.5	0	0	---	0.00	30.028 
05:35	57.6	57.6	57.6	80	51.5	0	0	---	0.00	30.028 
05:40	57.6	57.6	57.6	80	51.5	0	1	112	0.00	30.028 
05:45	57.8	57.8	57.8	79	51.3	0	0	---	0.00	30.032 
05:50	57.8	57.8	57.8	80	51.7	0	0	---	0.00	30.032 
05:55	57.8	57.8	57.8	79	51.3	0	0	---	0.00	30.032 
06:00	58.0	58.0	58.0	79	51.5	0	0	---	0.00	30.030 
06:05	58.0	58.0	58.0	79	51.5	0	0	---	0.00	30.030 
06:10	58.3	58.3	58.3	78	51.5	0	0	---	0.00	30.030 
06:15	58.4	58.4	58.4	78	51.6	0	0	---	0.00	30.039 
06:20	58.4	58.4	58.4	78	51.6	0	0	---	0.00	30.039 
06:25	58.6	58.6	58.6	79	52.1	0	0	---	0.00	30.039 
06:30	58.4	58.4	58.4	79	51.9	0	0	---	0.00	30.048 
06:35	58.4	58.4	58.4	79	51.9	0	0	---	0.00	30.048 
06:40	58.6	58.6	58.6	79	52.1	0	0	---	0.00	30.048 
06:45	58.6	58.6	58.6	79	52.1	0	0	---	0.00	30.052 
06:50	58.6	58.6	58.6	80	52.4	0	0	---	0.00	30.052 
06:55	58.7	58.7	58.7	80	52.5	0	0	---	0.00	30.052 
07:00	58.7	58.7	58.7	80	52.5	0	0	---	0.00	30.050 
07:05	58.9	58.9	58.9	80	52.7	0	0	---	0.00	30.050 
07:10	59.0	59.0	59.0	80	52.8	0	0	---	0.00	30.050 
07:15	59.2	59.2	59.2	79	52.7	0	0	---	0.00	30.043 
07:20	59.5	59.5	59.5	78	52.6	0	1	112	0.00	30.043 
07:25	59.9	59.9	59.9	76	52.3	0	0	---	0.00	30.043 
07:30	60.2	60.2	60.2	76	52.6	0	1	112	0.00	30.044 
07:35	60.5	60.5	60.5	76	52.9	0	1	112	0.00	30.044 
07:40	60.9	60.9	60.9	76	53.3	0	1	112	0.00	30.044 
07:45	61.2	61.2	61.2	75	53.2	0	1	112	0.00	30.038 
07:50	61.3	61.3	61.3	74	52.9	0	1	112	0.00	30.038 
07:55	61.8	61.8	61.8	73	53.0	0	1	112	0.00	30.038 
08:00	62.1	62.1	62.1	72	53.0	0	2	112	0.00	30.037 
08:05	62.6	62.6	62.6	70	52.7	0	1	112	0.00	30.037 
08:10	62.9	62.9	62.9	70	53.0	0	2	112	0.00	30.037 
08:15	63.4	63.4	63.4	70	53.4	0	1	112	0.00	30.031 
08:20	63.7	63.7	63.7	70	53.7	1	3	112	0.00	30.031 
08:25	64.0	64.0	64.0	69	53.6	0	2	112	0.00	30.031 
08:30	64.3	64.3	64.3	69	53.9	0	2	112	0.00	30.028 
08:35	64.7	64.7	64.7	70	54.7	0	1	112	0.00	30.028 
08:40	64.8	64.8	64.8	69	54.4	0	2	112	0.00	30.028 
08:45	65.3	65.3	65.3	69	54.9	0	2	112	0.00	30.028 
08:50	65.6	65.6	65.6	70	55.5	0	2	112	0.00	30.028 
08:55	66.0	66.0	66.0	69	55.5	0	1	112	0.00	30.028 
09:00	66.3	66.3	66.3	69	55.8	0	2	112	0.00	30.023 
09:05	66.4	66.4	66.4	69	55.9	0	2	112	0.00	30.023 
09:10	66.9	66.9	66.9	69	56.4	0	1	112	0.00	30.023 
09:15	67.3	67.3	67.3	68	56.4	0	2	112	0.00	30.023 
09:20	67.8	67.8	67.8	68	56.8	0	1	112	0.00	30.023 
09:25	68.1	68.1	68.1	67	56.7	0	2	112	0.00	30.023 
09:30	68.6	68.6	68.6	67	57.2	0	1	112	0.00	30.017 
09:35	69.3	69.3	69.3	67	57.9	0	1	112	0.00	30.017 
09:40	69.8	69.8	69.8	65	57.5	0	3	112	0.00	30.017 
09:45	70.3	70.3	70.3	64	57.5	0	1	90	0.00	30.004 
09:50	70.6	70.6	70.6	64	57.8	0	1	90	0.00	30.004 
09:55	70.8	70.8	70.8	62	57.1	1	3	90	0.00	30.004 
10:00	70.9	70.9	70.9	63	57.7	0	2	248	0.00	30.001 
10:05	71.3	71.3	71.3	63	58.0	0	1	248	0.00	30.001 
10:10	71.6	71.6	71.6	63	58.3	0	1	248	0.00	30.001 
10:15	71.6	71.6	71.6	61	57.4	0	2	248	0.00	29.986 
10:20	71.8	71.8	71.8	61	57.6	1	4	90	0.00	29.986 
10:25	71.6	71.6	71.6	62	57.9	1	4	90	0.00	29.986 
10:30	71.8	71.8	71.8	62	58.1	1	4	90	0.00	29.980 
10:35	71.8	71.8	71.8	62	58.1	1	5	90	0.00	29.980 
10:40	71.8	71.8	71.8	63	58.5	0	2	270	0.00	29.980 
10:45	72.0	72.0	72.0	63	58.7	0	2	22	0.00	29.969 
10:50	72.1	72.1	72.1	63	58.8	1	4	68	0.00	29.969 
10:55	72.1	72.1	72.1	63	58.8	1	6	112	0.00	29.969 
11:00	72.3	72.3	72.3	63	59.0	1	3	68	0.00	29.954 
11:05	72.5	72.5	72.5	65	60.0	1	4	90	0.00	29.954 
11:10	72.5	72.5	72.5	65	60.0	1	5	112	0.00	29.954 
11:15	72.7	72.7	72.7	63	59.4	1	5	90	0.00	29.948 
11:20	72.7	72.7	72.7	65	60.2	0	2	68	0.00	29.948 
11:25	72.8	72.8	72.8	63	59.5	1	4	90	0.00	29.948 
11:30	72.8	72.8	72.8	64	59.9	0	2	68	0.00	29.944 
11:35	73.3	73.3	73.3	64	60.4	1	3	292	0.00	29.944 
11:40	74.4	74.4	74.4	63	61.0	1	3	45	0.00	29.944 
11:45	75.3	75.3	77.5	62	61.4	1	3	90	0.00	29.938 
11:50	76.0	76.0	78.0	61	61.6	2	5	292	0.00	29.938 
11:55	76.5	76.5	78.4	60	61.6	1	5	315	0.00	29.938 
12:00	77.2	77.2	78.9	60	62.2	1	3	270	0.00	29.948 
12:05	77.6	77.6	79.3	61	63.1	2	4	270	0.00	29.948 
12:10	78.3	78.3	80.0	61	63.7	1	4	248	0.00	29.948 
12:15	79.4	79.4	81.2	61	64.8	0	2	225	0.00	29.949 
12:20	79.9	79.9	81.7	60	64.7	1	3	248	0.00	29.949 
12:25	80.3	80.3	81.9	58	64.2	2	4	225	0.00	29.949 
12:30	80.3	80.3	82.2	60	65.1	2	5	270	0.00	29.953 
12:35	80.5	80.5	82.5	61	65.8	2	4	270	0.00	29.953 
12:40	80.3	80.3	82.2	60	65.1	3	6	270	0.00	29.953 
12:45	80.5	80.5	82.4	60	65.3	2	5	68	0.00	29.949 
12:50	80.9	80.9	83.1	61	66.2	2	5	248	0.00	29.949 
12:55	81.1	81.1	83.0	59	65.4	2	8	248	0.00	29.949 
13:00	80.1	80.1	81.9	60	64.9	3	7	270	0.00	29.961 
13:05	79.4	79.4	81.4	63	65.7	2	5	248	0.00	29.961 
13:10	79.6	79.6	81.6	63	65.9	2	5	270	0.00	29.961 
13:15	80.1	80.1	82.3	63	66.3	2	6	68	0.00	29.957 
13:20	79.9	79.9	82.0	63	66.2	2	7	248	0.00	29.957 
13:25	80.1	80.1	82.3	63	66.3	3	6	270	0.00	29.957 
13:30	80.3	80.3	82.4	62	66.1	1	4	292	0.00	29.950 
13:35	80.5	80.5	82.8	63	66.7	1	4	270	0.00	29.950 
13:40	80.9	80.9	83.2	62	66.6	1	4	270	0.00	29.950 
13:45	81.1	81.1	83.5	62	66.8	1	4	270	0.00	29.937 
13:50	81.1	81.1	83.3	61	66.4	2	4	248	0.00	29.937 
13:55	81.1	81.1	83.3	61	66.4	1	4	270	0.00	29.937 
14:00	81.4	81.4	83.6	60	66.2	1	4	270	0.00	29.935 
14:05	81.6	81.6	84.0	61	66.8	1	4	248	0.00	29.935 
14:10	81.8	81.8	84.5	62	67.5	1	5	45	0.00	29.935 
14:15	81.6	81.6	83.7	59	65.9	2	9	248	0.00	29.935 
14:20	81.2	81.2	83.5	61	66.4	1	4	248	0.00	29.935 
14:25	81.1	81.1	83.3	61	66.4	2	4	270	0.00	29.935 
14:30	81.1	81.1	83.5	62	66.8	1	4	248	0.00	29.931 
14:35	81.2	81.2	83.6	62	66.9	1	4	270	0.00	29.931 
14:40	81.4	81.4	83.6	60	66.2	1	3	248	0.00	29.931 
14:45	81.6	81.6	84.2	62	67.3	1	4	248	0.00	29.928 
14:50	81.2	81.2	83.5	61	66.4	2	7	270	0.00	29.928 
14:55	80.5	80.5	82.7	62	66.3	2	4	270	0.00	29.928 
15:00	79.9	79.9	82.0	63	66.2	1	4	248	0.00	29.928 
15:05	79.6	79.6	81.7	64	66.3	1	4	270	0.00	29.928 
15:10	79.2	79.2	81.3	65	66.4	1	3	68	0.00	29.928 
15:15	79.2	79.2	81.3	65	66.4	1	3	292	0.00	29.923 
15:20	79.0	79.0	81.1	66	66.6	1	4	270	0.00	29.923 
15:25	79.2	79.2	81.3	65	66.4	1	3	248	0.00	29.923 
15:30	79.2	79.2	81.3	65	66.4	1	4	248	0.00	29.924 
15:35	79.0	79.0	81.1	66	66.6	1	3	248	0.00	29.924 
15:40	78.6	78.6	80.6	66	66.3	1	4	248	0.00	29.924 
15:45	78.5	78.5	80.5	67	66.6	1	3	248	0.00	29.927 
15:50	78.1	78.1	80.1	68	66.7	1	3	248	0.00	29.927 
15:55	77.9	77.9	79.9	69	66.9	1	3	248	0.00	29.927 
16:00	77.9	77.9	79.9	69	66.9	0	1	248	0.00	29.927 
16:05	77.9	77.9	79.9	69	66.9	1	4	248	0.00	29.927 
16:10	78.1	78.1	80.2	70	67.5	1	3	270	0.00	29.927 
16:15	78.1	78.1	80.2	70	67.5	1	2	270	0.00	29.924 
16:20	78.1	78.1	80.2	70	67.5	0	1	270	0.00	29.924 
16:25	78.6	78.6	80.9	71	68.4	0	2	270	0.00	29.924 
16:30	79.2	79.2	81.6	69	68.1	1	4	248	0.00	29.919 
16:35	79.4	79.4	81.9	69	68.3	1	3	248	0.00	29.919 
16:40	79.2	79.2	81.5	68	67.7	1	4	270	0.00	29.919 
16:45	79.4	79.4	82.0	70	68.7	0	2	270	0.00	29.912 
16:50	80.1	80.1	82.7	67	68.1	1	3	270	0.00	29.912 
16:55	80.5	80.5	83.2	66	68.1	1	2	270	0.00	29.912 
17:00	80.7	80.7	83.5	66	68.3	0	3	292	0.00	29.906 
17:05	80.5	80.5	83.3	67	68.5	0	3	225	0.00	29.906 
17:10	80.5	80.5	83.2	66	68.1	1	2	225	0.00	29.906 
17:15	80.7	80.7	83.5	66	68.3	1	2	225	0.00	29.907 
17:20	80.7	80.7	83.4	65	67.8	0	2	225	0.00	29.907 
17:25	80.9	80.9	83.8	66	68.4	1	3	225	0.00	29.907 
17:30	81.2	81.2	84.0	64	67.8	1	3	225	0.00	29.895 
17:35	81.4	81.4	84.4	65	68.5	0	1	45	0.00	29.895 
17:40	81.2	81.2	84.0	64	67.8	1	3	338	0.00	29.895 
17:45	81.1	81.1	84.0	65	68.2	1	3	338	0.00	29.893 
17:50	80.9	80.9	83.7	65	68.0	1	3	315	0.00	29.893 
17:55	80.7	80.7	83.5	66	68.3	0	2	315	0.00	29.893 
18:00	80.7	80.7	83.7	67	68.7	0	1	315	0.00	29.889 
18:05	80.7	80.7	83.5	66	68.3	0	1	315	0.00	29.889 
18:10	80.7	80.7	83.5	66	68.3	1	2	0	0.00	29.889 
18:15	80.7	80.7	83.5	66	68.3	1	3	292	0.00	29.887 
18:20	80.5	80.5	83.2	66	68.1	1	2	292	0.00	29.887 
18:25	80.7	80.7	83.5	66	68.3	1	3	292	0.00	29.887 
18:30	80.9	80.9	83.8	66	68.4	0	2	292	0.00	29.882 
18:35	81.1	81.1	84.0	65	68.2	1	3	292	0.00	29.882 
18:40	81.1	81.1	84.0	65	68.2	1	3	292	0.00	29.882 
18:45	81.2	81.2	84.3	66	68.7	0	3	292	0.00	29.883 
18:50	81.1	81.1	84.0	65	68.2	1	3	292	0.00	29.883 
18:55	81.2	81.2	84.3	66	68.7	1	2	248	0.00	29.883 
19:00	81.6	81.6	84.9	66	69.1	0	2	248	0.00	29.880 
19:05	81.8	81.8	84.9	64	68.4	1	4	248	0.00	29.880 
19:10	81.6	81.6	84.7	65	68.7	1	2	248	0.00	29.880 
19:15	81.2	81.2	84.3	66	68.7	0	2	248	0.00	29.886 
19:20	81.1	81.1	84.3	67	69.1	0	1	248	0.00	29.886 
19:25	80.9	80.9	84.0	67	68.9	0	1	248	0.00	29.886 
19:30	80.7	80.7	83.7	67	68.7	0	1	248	0.00	29.880 
19:35	80.7	80.7	83.8	68	69.1	0	1	248	0.00	29.880 
19:40	80.7	80.7	83.8	68	69.1	0	0	---	0.00	29.880 
19:45	80.7	80.7	83.8	68	69.1	0	1	248	0.00	29.875 
19:50	80.7	80.7	83.8	68	69.1	0	1	248	0.00	29.875 
19:55	80.7	80.7	83.8	68	69.1	0	1	248	0.00	29.875 
20:00	80.9	80.9	84.1	68	69.3	0	1	248	0.00	29.872 
20:05	80.7	80.7	83.8	68	69.1	0	1	248	0.00	29.872 
20:10	80.9	80.9	84.1	68	69.3	0	1	248	0.00	29.872 
20:15	80.9	80.9	84.0	67	68.9	0	2	248	0.00	29.870 
20:20	81.1	81.1	84.1	66	68.6	0	1	248	0.00	29.870 
20:25	81.1	81.1	84.1	66	68.6	0	1	248	0.00	29.870 
20:30	80.9	80.9	84.0	67	68.9	0	1	248	0.00	29.876 
20:35	80.9	80.9	83.8	66	68.4	0	1	248	0.00	29.876 
20:40	80.7	80.7	83.5	66	68.3	0	1	248	0.00	29.876 
20:45	80.7	80.7	83.2	64	67.4	0	1	248	0.00	29.879 
20:50	80.5	80.5	82.9	64	67.2	0	1	248	0.00	29.879 
20:55	80.3	80.3	82.5	63	66.5	0	1	248	0.00	29.879 
21:00	80.1	80.1	82.2	62	65.9	0	1	248	0.00	29.883 
21:05	79.9	79.9	81.8	61	65.2	0	1	248	0.00	29.883 
21:10	79.8	79.8	81.7	61	65.1	0	1	248	0.00	29.883 
21:15	79.6	79.6	81.4	61	64.9	0	1	248	0.00	29.880 
21:20	79.4	79.4	81.1	60	64.3	0	2	248	0.00	29.880 
21:25	79.2	79.2	81.0	61	64.6	0	2	248	0.00	29.880 
21:30	79.0	79.0	80.8	61	64.4	0	2	248	0.00	29.880 
21:35	79.0	79.0	80.8	61	64.4	0	2	248	0.00	29.880 
21:40	78.8	78.8	80.5	61	64.2	0	1	248	0.00	29.880 
21:45	78.8	78.8	80.5	61	64.2	0	2	248	0.00	29.880 
21:50	78.5	78.5	80.3	62	64.4	0	1	248	0.00	29.880 
21:55	78.3	78.3	80.1	62	64.2	0	1	248	0.00	29.880 
22:00	78.1	78.1	79.9	62	64.0	0	2	248	0.00	29.883 
22:05	77.9	77.9	79.7	63	64.3	0	1	248	0.00	29.883 
22:10	77.9	77.9	79.7	63	64.3	0	1	248	0.00	29.883 
22:15	77.6	77.6	79.4	63	64.0	0	1	248	0.00	29.881 
22:20	77.4	77.4	79.2	64	64.2	0	1	248	0.00	29.881 
22:25	77.2	77.2	79.0	64	64.1	0	1	248	0.00	29.881 
22:30	77.2	77.2	79.0	64	64.1	0	1	248	0.00	29.881 
22:35	77.0	77.0	78.8	64	63.9	0	2	248	0.00	29.881 
22:40	77.0	77.0	78.8	64	63.9	0	2	248	0.00	29.881 
22:45	76.8	76.8	78.6	64	63.7	0	1	248	0.00	29.878 
22:50	76.8	76.8	78.6	65	64.1	0	1	248	0.00	29.878 
22:55	76.5	76.5	78.3	65	63.8	0	1	248	0.00	29.878 
23:00	76.3	76.3	78.1	65	63.6	0	1	248	0.00	29.884 
23:05	76.0	76.0	77.8	66	63.8	0	1	248	0.00	29.884 
23:10	76.0	76.0	77.8	66	63.8	0	1	248	0.00	29.884 
23:15	76.0	76.0	77.8	66	63.8	0	2	248	0.00	29.881 
23:20	75.8	75.8	77.7	66	63.6	0	1	248	0.00	29.881 
23:25	75.8	75.8	77.6	67	64.0	0	1	248	0.00	29.881 
23:30	75.6	75.6	77.4	67	63.9	0	1	248	0.00	29.881 
23:35	75.4	75.4	77.2	68	64.1	0	1	248	0.00	29.881 
23:40	75.3	75.3	77.1	68	64.0	0	1	248	0.00	29.881 
23:45	75.3	75.3	77.1	68	64.0	0	1	248	0.00	29.881 
23:50	75.1	75.1	76.9	68	63.8	0	2	248	0.00	29.881 
23:55	75.1	75.1	76.9	68	63.8	0	2	248	0.00	29.881 

CoCoRaHS
IN-AL-39
A2 Web Hosting
Creative Commons License
GoDaddy
search engine by freefind advanced

loaded 2018-12-19 11:26:55 • last modified 2010-11-18 10:43:29
Privacy PolicyDisclaimer
• wx.awcolley.com is powered by PmWiki v.2002016 •
• all content (unless otherwise noted) © 2018 A W Colley